Time;durP1;ratioP1;P1;durP2;ratioP2;P2;SDS_P1;SDS_P2;PMS_P1;PMS_P2;Temp;Humidity;BMP_temperature;BMP_pressure;BME280_temperature;BME280_humidity;BME280_pressure;Samples;Min_cycle;Max_cycle;Signal;HPM_P1;HPM_P2
2023/02/28 00:01:21;;;;;;;13.10;4.40;;;2.30;99.90;;;;;;4976288;23;20270;-93
2023/02/28 00:03:27;;;;;;;11.90;4.63;;;2.20;99.90;;;;;;5091630;23;20156;-93
2023/02/28 00:06:27;;;;;;;8.57;4.40;;;2.20;99.90;;;;;;5168815;23;20245;-92
2023/02/28 00:08:34;;;;;;;8.73;4.70;;;2.10;99.90;;;;;;5143704;23;20156;-92
2023/02/28 00:13:49;;;;;;;;;;;;;;;;;;;;;
2023/02/28 00:16:32;;;;;;;14.40;4.27;;;2.00;99.90;;;;;;5168937;23;20234;-94
2023/02/28 00:19:22;;;;;;;11.97;4.77;;;2.10;99.90;;;;;;5093940;23;20200;-93
2023/02/28 00:22:09;;;;;;;;;;;;;;;;;;;;;
2023/02/28 00:31:30;;;;;;;10.90;4.47;;;2.00;99.90;;;;;;5183925;22;20208;-93
2023/02/28 00:34:09;;;;;;;9.87;4.70;;;2.00;99.90;;;;;;5167931;23;20162;-92
2023/02/28 00:36:26;;;;;;;9.97;4.33;;;2.10;99.90;;;;;;5132278;23;20167;-92
2023/02/28 00:40:17;;;;;;;;;;;;;;;;;;;;;
2023/02/28 00:53:57;;;;;;;;;;;;;;;;;;;;;
2023/02/28 01:02:22;;;;;;;;;;;;;;;;;;;;;
2023/02/28 03:42:06;;;;;;;;;;;;;;;;;;;;;
2023/02/28 03:45:10;;;;;;;21.77;8.27;;;1.60;99.90;;;;;;5142473;23;20157;-94
2023/02/28 04:02:08;;;;;;;14.17;7.87;;;1.40;99.90;;;;;;5049582;23;20197;-93
2023/02/28 04:04:29;;;;;;;13.87;8.57;;;1.40;99.90;;;;;;5063976;23;20209;-93
2023/02/28 04:06:34;;;;;;;15.87;8.00;;;1.40;99.90;;;;;;5167468;23;20155;-93
2023/02/28 04:08:43;;;;;;;14.13;8.50;;;1.30;99.90;;;;;;5195225;22;20150;-93
2023/02/28 04:11:14;;;;;;;12.50;8.57;;;1.30;99.90;;;;;;5169979;22;20190;-93
2023/02/28 04:13:15;;;;;;;15.60;8.27;;;1.20;99.90;;;;;;5149523;22;20155;-93
2023/02/28 04:15:32;;;;;;;;;;;;;;;;;;;;;
2023/02/28 04:17:49;;;;;;;17.43;8.60;;;1.20;99.90;;;;;;5221950;22;20212;-93
2023/02/28 04:20:11;;;;;;;15.33;8.27;;;1.20;99.90;;;;;;5196796;22;20170;-94
2023/02/28 04:22:44;;;;;;;19.10;8.73;;;1.10;99.90;;;;;;5169712;22;20165;-92
2023/02/28 04:47:01;;;;;;;12.10;7.63;;;1.70;99.90;;;;;;4884674;23;20160;-91
2023/02/28 04:48:58;;;;;;;14.43;8.63;;;2.00;99.90;;;;;;4957128;23;20248;-93
2023/02/28 04:51:19;;;;;;;14.37;8.50;;;2.00;99.90;;;;;;4993969;23;20202;-94
2023/02/28 04:54:02;;;;;;;15.93;8.93;;;2.00;99.90;;;;;;5169608;22;20161;-94
2023/02/28 04:56:25;;;;;;;20.70;8.90;;;2.00;99.90;;;;;;5193071;22;20153;-92
2023/02/28 04:58:29;;;;;;;18.83;8.30;;;2.00;99.90;;;;;;5195088;22;20165;-92
2023/02/28 05:00:32;;;;;;;17.37;8.70;;;1.90;99.90;;;;;;5169265;23;20672;-93
2023/02/28 05:02:43;;;;;;;16.27;9.03;;;1.80;99.90;;;;;;5169658;23;20188;-93
2023/02/28 05:04:55;;;;;;;15.70;9.03;;;1.80;99.90;;;;;;5171219;22;20171;-92
2023/02/28 05:06:56;;;;;;;20.00;9.07;;;1.80;99.90;;;;;;5194319;22;20150;-91
2023/02/28 05:08:58;;;;;;;14.53;8.07;;;1.90;99.90;;;;;;5193965;22;20146;-92
2023/02/28 05:11:00;;;;;;;15.33;8.47;;;1.80;99.90;;;;;;5168791;23;20182;-92
2023/02/28 05:13:01;;;;;;;15.93;9.10;;;1.70;99.90;;;;;;5169177;23;20154;-92
2023/02/28 05:15:04;;;;;;;12.63;7.97;;;1.60;99.90;;;;;;5194410;22;20146;-92
2023/02/28 05:17:05;;;;;;;15.43;8.73;;;1.60;99.90;;;;;;5168874;23;20154;-92
2023/02/28 05:19:06;;;;;;;16.00;8.97;;;1.60;99.90;;;;;;5169141;23;20191;-91
2023/02/28 05:21:24;;;;;;;17.27;8.67;;;1.60;99.90;;;;;;5169132;23;20220;-92
2023/02/28 05:23:25;;;;;;;14.83;7.97;;;1.60;99.90;;;;;;5169537;23;20155;-91
2023/02/28 05:25:26;;;;;;;17.67;9.03;;;1.50;99.90;;;;;;5169323;23;20204;-93
2023/02/28 05:27:28;;;;;;;19.77;8.90;;;1.50;99.90;;;;;;5169334;23;20151;-92
2023/02/28 05:29:28;;;;;;;15.83;8.93;;;1.50;99.90;;;;;;5194559;22;20158;-93
2023/02/28 05:31:32;;;;;;;14.53;8.83;;;1.60;99.90;;;;;;5194154;22;20273;-92
2023/02/28 05:33:33;;;;;;;16.33;8.70;;;1.60;99.90;;;;;;5168919;23;20174;-92
2023/02/28 05:35:38;;;;;;;19.30;8.87;;;1.60;99.90;;;;;;5168861;23;20609;-91
2023/02/28 05:37:39;;;;;;;18.17;8.80;;;1.60;99.90;;;;;;5194148;22;20154;-92
2023/02/28 05:39:40;;;;;;;16.33;9.17;;;1.60;99.90;;;;;;5168852;23;20510;-94
2023/02/28 05:41:45;;;;;;;19.87;8.83;;;1.60;99.90;;;;;;5168949;23;20155;-93
2023/02/28 05:43:49;;;;;;;18.03;9.27;;;1.60;99.90;;;;;;5194586;22;20616;-92
2023/02/28 05:45:52;;;;;;;15.50;9.07;;;1.70;99.90;;;;;;5169436;22;20193;-93
2023/02/28 05:47:54;;;;;;;19.87;8.27;;;1.60;99.90;;;;;;5193853;22;20154;-92
2023/02/28 05:49:55;;;;;;;19.17;8.47;;;1.70;99.90;;;;;;5193847;22;20174;-93
2023/02/28 05:51:56;;;;;;;16.57;8.10;;;1.70;99.90;;;;;;5194082;22;20190;-92
2023/02/28 05:54:02;;;;;;;16.37;8.70;;;1.70;99.90;;;;;;5168882;22;20147;-91
2023/02/28 05:56:03;;;;;;;18.67;8.90;;;1.70;99.90;;;;;;5168674;23;20314;-94
2023/02/28 05:58:04;;;;;;;16.97;8.63;;;1.80;99.90;;;;;;5168914;23;20205;-93
2023/02/28 06:00:06;;;;;;;18.50;8.63;;;1.80;99.90;;;;;;5168926;23;20262;-91
2023/02/28 06:02:14;;;;;;;14.70;8.53;;;1.80;99.90;;;;;;5195419;22;20232;-92
2023/02/28 06:04:20;;;;;;;16.80;8.10;;;1.80;99.90;;;;;;5168578;23;20590;-92
2023/02/28 06:06:23;;;;;;;15.67;8.10;;;1.70;99.90;;;;;;5194052;22;20157;-88
2023/02/28 06:08:25;;;;;;;18.83;8.23;;;1.60;99.90;;;;;;5195235;22;20154;-90
2023/02/28 06:10:26;;;;;;;20.03;8.77;;;1.70;99.90;;;;;;5169043;22;20261;-92
2023/02/28 06:12:26;;;;;;;17.70;8.70;;;1.70;99.90;;;;;;5168379;23;20162;-90
2023/02/28 06:14:27;;;;;;;16.57;8.73;;;1.70;99.90;;;;;;5169243;23;20155;-91
2023/02/28 06:16:29;;;;;;;17.57;8.03;;;1.70;99.90;;;;;;5168365;23;20157;-91
2023/02/28 06:18:30;;;;;;;14.67;8.53;;;1.70;99.90;;;;;;5170303;23;20158;-90
2023/02/28 06:20:31;;;;;;;16.60;8.20;;;1.70;99.90;;;;;;5168539;23;20249;-89
2023/02/28 06:22:32;;;;;;;17.17;8.40;;;1.80;99.90;;;;;;5194462;22;20232;-90
2023/02/28 06:24:32;;;;;;;14.90;8.43;;;1.80;99.90;;;;;;5194472;22;20154;-90
2023/02/28 17:03:40;;;;;;;3.87;2.27;;;5.10;99.90;;;;;;5201445;22;20191;-91
2023/02/28 17:05:43;;;;;;;4.10;2.37;;;5.00;99.90;;;;;;5194531;22;20161;-92
